sensor_id;sensor_type;location;lat;lon;timestamp;P1;durP1;ratioP1;P2;durP2;ratioP2
21567;SDS011;10944;42.590;12.630;2023-02-13T00:01:04;30.77;;;16.20;;
21567;SDS011;10944;42.590;12.630;2023-02-13T00:03:29;32.33;;;16.40;;
21567;SDS011;10944;42.590;12.630;2023-02-13T00:05:55;31.60;;;16.57;;
21567;SDS011;10944;42.590;12.630;2023-02-13T00:08:21;31.27;;;17.07;;
21567;SDS011;10944;42.590;12.630;2023-02-13T00:10:47;34.13;;;18.03;;
21567;SDS011;10944;42.590;12.630;2023-02-13T00:13:13;35.30;;;18.07;;
21567;SDS011;10944;42.590;12.630;2023-02-13T00:15:39;33.80;;;17.50;;
21567;SDS011;10944;42.590;12.630;2023-02-13T00:18:04;33.87;;;18.67;;
21567;SDS011;10944;42.590;12.630;2023-02-13T00:20:30;40.67;;;19.20;;
21567;SDS011;10944;42.590;12.630;2023-02-13T00:22:57;34.20;;;18.40;;
21567;SDS011;10944;42.590;12.630;2023-02-13T00:25:25;38.60;;;18.57;;
21567;SDS011;10944;42.590;12.630;2023-02-13T00:27:51;37.43;;;18.70;;
21567;SDS011;10944;42.590;12.630;2023-02-13T00:30:18;38.60;;;19.57;;
21567;SDS011;10944;42.590;12.630;2023-02-13T00:32:44;37.87;;;19.57;;
21567;SDS011;10944;42.590;12.630;2023-02-13T00:35:10;42.27;;;21.10;;
21567;SDS011;10944;42.590;12.630;2023-02-13T00:37:36;43.83;;;21.30;;
21567;SDS011;10944;42.590;12.630;2023-02-13T00:40:02;42.83;;;22.53;;
21567;SDS011;10944;42.590;12.630;2023-02-13T00:42:27;41.97;;;21.80;;
21567;SDS011;10944;42.590;12.630;2023-02-13T00:44:53;39.47;;;20.70;;
21567;SDS011;10944;42.590;12.630;2023-02-13T00:47:19;44.17;;;21.47;;
21567;SDS011;10944;42.590;12.630;2023-02-13T00:49:45;39.17;;;20.23;;
21567;SDS011;10944;42.590;12.630;2023-02-13T00:52:11;39.30;;;20.03;;
21567;SDS011;10944;42.590;12.630;2023-02-13T00:54:37;37.30;;;19.30;;
21567;SDS011;10944;42.590;12.630;2023-02-13T00:57:03;36.90;;;19.00;;
21567;SDS011;10944;42.590;12.630;2023-02-13T00:59:28;38.07;;;19.40;;
21567;SDS011;10944;42.590;12.630;2023-02-13T01:01:54;33.63;;;18.90;;
21567;SDS011;10944;42.590;12.630;2023-02-13T01:04:20;36.27;;;18.73;;
21567;SDS011;10944;42.590;12.630;2023-02-13T01:06:45;36.00;;;18.40;;
21567;SDS011;10944;42.590;12.630;2023-02-13T01:09:11;35.00;;;18.30;;
21567;SDS011;10944;42.590;12.630;2023-02-13T01:11:37;36.20;;;18.63;;
21567;SDS011;10944;42.590;12.630;2023-02-13T01:14:02;40.13;;;18.30;;
21567;SDS011;10944;42.590;12.630;2023-02-13T01:16:28;36.00;;;18.17;;
21567;SDS011;10944;42.590;12.630;2023-02-13T01:18:54;32.47;;;17.53;;
21567;SDS011;10944;42.590;12.630;2023-02-13T01:21:20;36.73;;;16.37;;
21567;SDS011;10944;42.590;12.630;2023-02-13T01:23:47;31.47;;;16.17;;
21567;SDS011;10944;42.590;12.630;2023-02-13T01:26:21;31.13;;;16.37;;
21567;SDS011;10944;42.590;12.630;2023-02-13T01:28:50;30.40;;;15.47;;
21567;SDS011;10944;42.590;12.630;2023-02-13T01:31:18;23.40;;;11.00;;
21567;SDS011;10944;42.590;12.630;2023-02-13T01:33:44;20.03;;;10.50;;
21567;SDS011;10944;42.590;12.630;2023-02-13T01:36:10;22.97;;;11.77;;
21567;SDS011;10944;42.590;12.630;2023-02-13T01:38:38;25.67;;;13.53;;
21567;SDS011;10944;42.590;12.630;2023-02-13T01:41:04;30.67;;;16.33;;
21567;SDS011;10944;42.590;12.630;2023-02-13T01:43:44;33.50;;;15.67;;
21567;SDS011;10944;42.590;12.630;2023-02-13T01:46:10;28.07;;;14.73;;
21567;SDS011;10944;42.590;12.630;2023-02-13T01:48:40;25.87;;;14.60;;
21567;SDS011;10944;42.590;12.630;2023-02-13T01:51:13;32.83;;;15.73;;
21567;SDS011;10944;42.590;12.630;2023-02-13T01:53:45;29.73;;;15.27;;
21567;SDS011;10944;42.590;12.630;2023-02-13T01:56:28;30.67;;;14.27;;
21567;SDS011;10944;42.590;12.630;2023-02-13T01:58:58;29.30;;;14.10;;
21567;SDS011;10944;42.590;12.630;2023-02-13T02:01:26;29.77;;;14.03;;
21567;SDS011;10944;42.590;12.630;2023-02-13T02:04:09;28.03;;;14.50;;
21567;SDS011;10944;42.590;12.630;2023-02-13T02:06:47;27.43;;;14.47;;
21567;SDS011;10944;42.590;12.630;2023-02-13T02:09:17;31.17;;;16.00;;
21567;SDS011;10944;42.590;12.630;2023-02-13T02:12:12;31.87;;;15.67;;
21567;SDS011;10944;42.590;12.630;2023-02-13T02:14:47;29.47;;;15.43;;
21567;SDS011;10944;42.590;12.630;2023-02-13T02:17:14;27.80;;;13.33;;
21567;SDS011;10944;42.590;12.630;2023-02-13T02:39:38;24.63;;;13.23;;
21567;SDS011;10944;42.590;12.630;2023-02-13T02:42:33;24.27;;;12.73;;
21567;SDS011;10944;42.590;12.630;2023-02-13T02:45:23;25.90;;;12.27;;
21567;SDS011;10944;42.590;12.630;2023-02-13T02:48:21;25.33;;;12.00;;
21567;SDS011;10944;42.590;12.630;2023-02-13T02:51:43;23.23;;;12.00;;
21567;SDS011;10944;42.590;12.630;2023-02-13T02:54:29;23.77;;;10.83;;
21567;SDS011;10944;42.590;12.630;2023-02-13T02:57:26;20.73;;;10.97;;
21567;SDS011;10944;42.590;12.630;2023-02-13T03:00:18;25.43;;;10.33;;
21567;SDS011;10944;42.590;12.630;2023-02-13T03:03:04;21.77;;;10.37;;
21567;SDS011;10944;42.590;12.630;2023-02-13T03:05:56;20.00;;;10.00;;
21567;SDS011;10944;42.590;12.630;2023-02-13T03:08:42;19.53;;;10.60;;
21567;SDS011;10944;42.590;12.630;2023-02-13T03:11:28;21.73;;;10.13;;
21567;SDS011;10944;42.590;12.630;2023-02-13T03:14:14;21.87;;;10.63;;
21567;SDS011;10944;42.590;12.630;2023-02-13T03:16:43;20.77;;;10.30;;
21567;SDS011;10944;42.590;12.630;2023-02-13T03:41:43;23.40;;;10.27;;
21567;SDS011;10944;42.590;12.630;2023-02-13T03:46:58;19.33;;;9.30;;
21567;SDS011;10944;42.590;12.630;2023-02-13T03:49:33;16.57;;;8.60;;
21567;SDS011;10944;42.590;12.630;2023-02-13T03:52:30;17.43;;;8.73;;
21567;SDS011;10944;42.590;12.630;2023-02-13T03:55:24;16.63;;;8.73;;
21567;SDS011;10944;42.590;12.630;2023-02-13T03:58:20;17.07;;;8.70;;
21567;SDS011;10944;42.590;12.630;2023-02-13T04:01:10;16.57;;;8.53;;
21567;SDS011;10944;42.590;12.630;2023-02-13T04:03:47;18.07;;;8.97;;
21567;SDS011;10944;42.590;12.630;2023-02-13T04:06:19;19.67;;;9.33;;
21567;SDS011;10944;42.590;12.630;2023-02-13T04:08:51;18.30;;;8.03;;
21567;SDS011;10944;42.590;12.630;2023-02-13T04:11:20;20.10;;;8.67;;
21567;SDS011;10944;42.590;12.630;2023-02-13T04:14:03;16.33;;;7.63;;
21567;SDS011;10944;42.590;12.630;2023-02-13T04:16:38;16.03;;;7.77;;
21567;SDS011;10944;42.590;12.630;2023-02-13T04:19:08;15.13;;;7.47;;
21567;SDS011;10944;42.590;12.630;2023-02-13T04:21:35;14.87;;;7.70;;
21567;SDS011;10944;42.590;12.630;2023-02-13T04:24:04;14.50;;;7.50;;
21567;SDS011;10944;42.590;12.630;2023-02-13T04:26:35;17.27;;;7.70;;
21567;SDS011;10944;42.590;12.630;2023-02-13T04:29:04;16.40;;;7.50;;
21567;SDS011;10944;42.590;12.630;2023-02-13T04:31:29;15.63;;;7.63;;
21567;SDS011;10944;42.590;12.630;2023-02-13T04:33:55;14.43;;;7.23;;
21567;SDS011;10944;42.590;12.630;2023-02-13T04:36:21;16.03;;;7.03;;
21567;SDS011;10944;42.590;12.630;2023-02-13T04:38:46;14.33;;;7.33;;
21567;SDS011;10944;42.590;12.630;2023-02-13T04:41:12;16.83;;;7.30;;
21567;SDS011;10944;42.590;12.630;2023-02-13T04:43:38;15.43;;;7.73;;
21567;SDS011;10944;42.590;12.630;2023-02-13T04:46:03;15.00;;;7.97;;
21567;SDS011;10944;42.590;12.630;2023-02-13T04:48:29;19.70;;;9.20;;
21567;SDS011;10944;42.590;12.630;2023-02-13T04:50:55;20.43;;;9.40;;
21567;SDS011;10944;42.590;12.630;2023-02-13T04:53:21;16.03;;;8.83;;
21567;SDS011;10944;42.590;12.630;2023-02-13T04:55:46;18.37;;;9.97;;
21567;SDS011;10944;42.590;12.630;2023-02-13T04:58:12;19.97;;;10.17;;
21567;SDS011;10944;42.590;12.630;2023-02-13T05:00:38;21.67;;;11.03;;
21567;SDS011;10944;42.590;12.630;2023-02-13T05:03:05;22.13;;;11.77;;
21567;SDS011;10944;42.590;12.630;2023-02-13T05:05:32;22.70;;;12.37;;
21567;SDS011;10944;42.590;12.630;2023-02-13T05:07:59;20.80;;;10.70;;
21567;SDS011;10944;42.590;12.630;2023-02-13T05:10:25;20.57;;;10.63;;
21567;SDS011;10944;42.590;12.630;2023-02-13T05:12:51;20.70;;;9.93;;
21567;SDS011;10944;42.590;12.630;2023-02-13T05:15:17;20.33;;;10.73;;
21567;SDS011;10944;42.590;12.630;2023-02-13T05:17:43;22.87;;;10.73;;
21567;SDS011;10944;42.590;12.630;2023-02-13T05:20:09;21.10;;;10.47;;
21567;SDS011;10944;42.590;12.630;2023-02-13T05:22:36;20.53;;;9.80;;
21567;SDS011;10944;42.590;12.630;2023-02-13T05:25:20;18.43;;;9.17;;
21567;SDS011;10944;42.590;12.630;2023-02-13T05:27:45;20.33;;;9.37;;
21567;SDS011;10944;42.590;12.630;2023-02-13T05:30:11;19.80;;;9.20;;
21567;SDS011;10944;42.590;12.630;2023-02-13T05:32:38;17.40;;;9.43;;
21567;SDS011;10944;42.590;12.630;2023-02-13T05:35:04;15.37;;;9.03;;
21567;SDS011;10944;42.590;12.630;2023-02-13T05:37:30;18.07;;;9.47;;
21567;SDS011;10944;42.590;12.630;2023-02-13T05:39:56;20.63;;;9.33;;
21567;SDS011;10944;42.590;12.630;2023-02-13T05:42:21;18.67;;;8.80;;
21567;SDS011;10944;42.590;12.630;2023-02-13T05:44:47;19.83;;;9.70;;
21567;SDS011;10944;42.590;12.630;2023-02-13T05:47:13;19.10;;;8.93;;
21567;SDS011;10944;42.590;12.630;2023-02-13T05:49:38;17.77;;;9.93;;
21567;SDS011;10944;42.590;12.630;2023-02-13T05:52:04;20.10;;;10.70;;
21567;SDS011;10944;42.590;12.630;2023-02-13T05:54:30;22.13;;;10.63;;
21567;SDS011;10944;42.590;12.630;2023-02-13T05:56:55;17.20;;;8.57;;
21567;SDS011;10944;42.590;12.630;2023-02-13T05:59:21;17.40;;;8.70;;
21567;SDS011;10944;42.590;12.630;2023-02-13T06:01:47;17.23;;;8.33;;
21567;SDS011;10944;42.590;12.630;2023-02-13T06:04:12;15.60;;;7.50;;
21567;SDS011;10944;42.590;12.630;2023-02-13T06:06:38;13.17;;;6.93;;
21567;SDS011;10944;42.590;12.630;2023-02-13T06:09:04;15.13;;;7.97;;
21567;SDS011;10944;42.590;12.630;2023-02-13T06:11:29;14.77;;;7.20;;
21567;SDS011;10944;42.590;12.630;2023-02-13T06:13:55;17.50;;;7.70;;
21567;SDS011;10944;42.590;12.630;2023-02-13T06:16:21;16.87;;;7.87;;
21567;SDS011;10944;42.590;12.630;2023-02-13T06:18:47;13.60;;;6.93;;
21567;SDS011;10944;42.590;12.630;2023-02-13T06:21:13;14.63;;;7.30;;
21567;SDS011;10944;42.590;12.630;2023-02-13T06:23:38;15.00;;;7.57;;
21567;SDS011;10944;42.590;12.630;2023-02-13T06:26:04;16.33;;;8.20;;
21567;SDS011;10944;42.590;12.630;2023-02-13T06:28:31;17.70;;;8.40;;
21567;SDS011;10944;42.590;12.630;2023-02-13T06:30:58;18.03;;;8.67;;
21567;SDS011;10944;42.590;12.630;2023-02-13T06:33:23;19.60;;;8.93;;
21567;SDS011;10944;42.590;12.630;2023-02-13T06:35:49;20.23;;;9.23;;
21567;SDS011;10944;42.590;12.630;2023-02-13T06:38:15;19.73;;;9.70;;
21567;SDS011;10944;42.590;12.630;2023-02-13T06:40:43;18.07;;;9.13;;
21567;SDS011;10944;42.590;12.630;2023-02-13T06:43:12;17.23;;;8.90;;
21567;SDS011;10944;42.590;12.630;2023-02-13T06:45:39;14.87;;;8.03;;
21567;SDS011;10944;42.590;12.630;2023-02-13T06:48:05;19.17;;;9.03;;
21567;SDS011;10944;42.590;12.630;2023-02-13T06:50:31;19.20;;;9.80;;
21567;SDS011;10944;42.590;12.630;2023-02-13T06:52:57;16.53;;;9.10;;
21567;SDS011;10944;42.590;12.630;2023-02-13T06:55:22;18.67;;;9.23;;
21567;SDS011;10944;42.590;12.630;2023-02-13T06:57:48;19.57;;;9.23;;
21567;SDS011;10944;42.590;12.630;2023-02-13T07:00:14;19.60;;;8.87;;
21567;SDS011;10944;42.590;12.630;2023-02-13T07:02:42;15.20;;;7.70;;
21567;SDS011;10944;42.590;12.630;2023-02-13T07:05:09;27.20;;;8.40;;
21567;SDS011;10944;42.590;12.630;2023-02-13T07:07:35;22.77;;;7.57;;
21567;SDS011;10944;42.590;12.630;2023-02-13T07:10:04;18.03;;;7.00;;
21567;SDS011;10944;42.590;12.630;2023-02-13T07:12:32;15.07;;;7.43;;
21567;SDS011;10944;42.590;12.630;2023-02-13T07:14:58;15.23;;;8.00;;
21567;SDS011;10944;42.590;12.630;2023-02-13T07:17:24;19.70;;;9.10;;
21567;SDS011;10944;42.590;12.630;2023-02-13T07:19:50;17.70;;;9.67;;
21567;SDS011;10944;42.590;12.630;2023-02-13T07:22:16;17.30;;;8.67;;
21567;SDS011;10944;42.590;12.630;2023-02-13T07:24:42;20.60;;;10.70;;
21567;SDS011;10944;42.590;12.630;2023-02-13T07:27:08;24.47;;;12.03;;
21567;SDS011;10944;42.590;12.630;2023-02-13T07:29:34;20.57;;;11.57;;
21567;SDS011;10944;42.590;12.630;2023-02-13T07:31:59;21.97;;;9.97;;
21567;SDS011;10944;42.590;12.630;2023-02-13T07:34:25;16.43;;;9.40;;
21567;SDS011;10944;42.590;12.630;2023-02-13T07:36:51;19.37;;;10.67;;
21567;SDS011;10944;42.590;12.630;2023-02-13T07:39:17;26.37;;;13.83;;
21567;SDS011;10944;42.590;12.630;2023-02-13T07:41:43;27.43;;;14.53;;
21567;SDS011;10944;42.590;12.630;2023-02-13T07:44:09;33.23;;;17.43;;
21567;SDS011;10944;42.590;12.630;2023-02-13T07:46:34;49.63;;;24.93;;
21567;SDS011;10944;42.590;12.630;2023-02-13T07:49:01;52.63;;;29.40;;
21567;SDS011;10944;42.590;12.630;2023-02-13T07:51:26;56.93;;;31.27;;
21567;SDS011;10944;42.590;12.630;2023-02-13T07:53:53;57.43;;;29.33;;
21567;SDS011;10944;42.590;12.630;2023-02-13T07:56:19;53.17;;;28.50;;
21567;SDS011;10944;42.590;12.630;2023-02-13T07:58:45;48.97;;;27.03;;
21567;SDS011;10944;42.590;12.630;2023-02-13T08:01:12;50.40;;;25.27;;
21567;SDS011;10944;42.590;12.630;2023-02-13T08:03:39;31.77;;;19.13;;
21567;SDS011;10944;42.590;12.630;2023-02-13T08:06:05;31.50;;;17.97;;
21567;SDS011;10944;42.590;12.630;2023-02-13T08:08:32;37.03;;;20.13;;
21567;SDS011;10944;42.590;12.630;2023-02-13T08:11:05;37.43;;;20.20;;
21567;SDS011;10944;42.590;12.630;2023-02-13T08:13:54;35.93;;;19.63;;
21567;SDS011;10944;42.590;12.630;2023-02-13T08:16:20;37.07;;;21.17;;
21567;SDS011;10944;42.590;12.630;2023-02-13T08:18:46;34.83;;;19.87;;
21567;SDS011;10944;42.590;12.630;2023-02-13T08:21:11;43.50;;;24.30;;
21567;SDS011;10944;42.590;12.630;2023-02-13T08:23:39;52.37;;;29.07;;
21567;SDS011;10944;42.590;12.630;2023-02-13T08:26:04;50.73;;;27.70;;
21567;SDS011;10944;42.590;12.630;2023-02-13T08:28:30;48.77;;;27.47;;
21567;SDS011;10944;42.590;12.630;2023-02-13T08:30:56;47.00;;;26.17;;
21567;SDS011;10944;42.590;12.630;2023-02-13T08:33:21;51.63;;;26.37;;
21567;SDS011;10944;42.590;12.630;2023-02-13T08:35:47;43.90;;;24.80;;
21567;SDS011;10944;42.590;12.630;2023-02-13T08:38:13;43.70;;;23.77;;
21567;SDS011;10944;42.590;12.630;2023-02-13T08:40:39;41.03;;;22.63;;
21567;SDS011;10944;42.590;12.630;2023-02-13T08:43:04;33.07;;;19.77;;
21567;SDS011;10944;42.590;12.630;2023-02-13T08:45:31;35.67;;;19.40;;
21567;SDS011;10944;42.590;12.630;2023-02-13T08:47:57;35.07;;;18.87;;
21567;SDS011;10944;42.590;12.630;2023-02-13T08:50:24;33.27;;;18.70;;
21567;SDS011;10944;42.590;12.630;2023-02-13T08:52:51;34.57;;;19.17;;
21567;SDS011;10944;42.590;12.630;2023-02-13T08:55:17;31.47;;;18.97;;
21567;SDS011;10944;42.590;12.630;2023-02-13T08:57:43;31.23;;;17.87;;
21567;SDS011;10944;42.590;12.630;2023-02-13T09:00:09;36.97;;;21.97;;
21567;SDS011;10944;42.590;12.630;2023-02-13T09:02:35;36.47;;;21.23;;
21567;SDS011;10944;42.590;12.630;2023-02-13T09:05:01;41.50;;;21.93;;
21567;SDS011;10944;42.590;12.630;2023-02-13T09:07:27;40.83;;;23.80;;
21567;SDS011;10944;42.590;12.630;2023-02-13T09:09:53;31.90;;;19.43;;
21567;SDS011;10944;42.590;12.630;2023-02-13T09:12:18;35.97;;;21.40;;
21567;SDS011;10944;42.590;12.630;2023-02-13T09:14:44;36.37;;;20.53;;
21567;SDS011;10944;42.590;12.630;2023-02-13T09:17:11;38.53;;;22.10;;
21567;SDS011;10944;42.590;12.630;2023-02-13T09:19:38;34.53;;;22.43;;
21567;SDS011;10944;42.590;12.630;2023-02-13T09:22:04;38.60;;;21.00;;
21567;SDS011;10944;42.590;12.630;2023-02-13T09:24:29;34.47;;;20.50;;
21567;SDS011;10944;42.590;12.630;2023-02-13T09:26:55;39.20;;;20.20;;
21567;SDS011;10944;42.590;12.630;2023-02-13T09:29:21;37.57;;;20.83;;
21567;SDS011;10944;42.590;12.630;2023-02-13T09:31:46;34.20;;;19.90;;
21567;SDS011;10944;42.590;12.630;2023-02-13T09:34:12;28.87;;;16.63;;
21567;SDS011;10944;42.590;12.630;2023-02-13T09:36:38;31.50;;;17.00;;
21567;SDS011;10944;42.590;12.630;2023-02-13T09:39:04;32.17;;;18.77;;
21567;SDS011;10944;42.590;12.630;2023-02-13T09:41:30;32.00;;;18.23;;
21567;SDS011;10944;42.590;12.630;2023-02-13T09:44:26;29.80;;;16.33;;
21567;SDS011;10944;42.590;12.630;2023-02-13T09:49:53;32.07;;;16.33;;
21567;SDS011;10944;42.590;12.630;2023-02-13T09:52:25;27.70;;;16.63;;
21567;SDS011;10944;42.590;12.630;2023-02-13T09:54:55;29.70;;;16.07;;
21567;SDS011;10944;42.590;12.630;2023-02-13T09:57:33;27.50;;;16.10;;
21567;SDS011;10944;42.590;12.630;2023-02-13T10:10:50;31.43;;;17.63;;
21567;SDS011;10944;42.590;12.630;2023-02-13T10:16:16;46.83;;;23.13;;
21567;SDS011;10944;42.590;12.630;2023-02-13T10:21:29;37.20;;;21.20;;
21567;SDS011;10944;42.590;12.630;2023-02-13T10:24:11;39.30;;;21.55;;
21567;SDS011;10944;42.590;12.630;2023-02-13T10:26:41;43.27;;;21.63;;
21567;SDS011;10944;42.590;12.630;2023-02-13T10:32:09;32.20;;;19.77;;
21567;SDS011;10944;42.590;12.630;2023-02-13T10:34:38;36.85;;;20.13;;
21567;SDS011;10944;42.590;12.630;2023-02-13T10:37:20;34.93;;;20.13;;
21567;SDS011;10944;42.590;12.630;2023-02-13T10:39:47;37.57;;;20.07;;
21567;SDS011;10944;42.590;12.630;2023-02-13T11:03:48;33.15;;;18.92;;
21567;SDS011;10944;42.590;12.630;2023-02-13T11:06:32;37.80;;;19.23;;
21567;SDS011;10944;42.590;12.630;2023-02-13T11:09:03;30.23;;;18.52;;
21567;SDS011;10944;42.590;12.630;2023-02-13T11:11:35;32.35;;;19.17;;
21567;SDS011;10944;42.590;12.630;2023-02-13T11:22:01;31.77;;;19.00;;
21567;SDS011;10944;42.590;12.630;2023-02-13T11:24:41;30.17;;;16.92;;
21567;SDS011;10944;42.590;12.630;2023-02-13T11:27:22;29.30;;;17.45;;
21567;SDS011;10944;42.590;12.630;2023-02-13T11:29:53;29.35;;;16.27;;
21567;SDS011;10944;42.590;12.630;2023-02-13T11:32:22;28.40;;;16.00;;
21567;SDS011;10944;42.590;12.630;2023-02-13T11:34:51;26.05;;;14.63;;
21567;SDS011;10944;42.590;12.630;2023-02-13T11:37:26;23.70;;;13.55;;
21567;SDS011;10944;42.590;12.630;2023-02-13T11:39:54;22.50;;;12.73;;
21567;SDS011;10944;42.590;12.630;2023-02-13T11:42:29;21.23;;;11.93;;
21567;SDS011;10944;42.590;12.630;2023-02-13T11:45:13;20.75;;;12.98;;
21567;SDS011;10944;42.590;12.630;2023-02-13T11:47:46;21.17;;;11.57;;
21567;SDS011;10944;42.590;12.630;2023-02-13T11:50:23;20.42;;;11.68;;
21567;SDS011;10944;42.590;12.630;2023-02-13T11:55:31;17.58;;;10.43;;
21567;SDS011;10944;42.590;12.630;2023-02-13T12:00:36;20.05;;;12.30;;
21567;SDS011;10944;42.590;12.630;2023-02-13T12:08:29;29.17;;;16.02;;
21567;SDS011;10944;42.590;12.630;2023-02-13T12:10:56;20.60;;;13.10;;
21567;SDS011;10944;42.590;12.630;2023-02-13T12:13:26;27.60;;;14.30;;
21567;SDS011;10944;42.590;12.630;2023-02-13T12:16:04;37.80;;;19.88;;
21567;SDS011;10944;42.590;12.630;2023-02-13T12:18:45;34.53;;;18.83;;
21567;SDS011;10944;42.590;12.630;2023-02-13T12:31:46;18.88;;;10.93;;
21567;SDS011;10944;42.590;12.630;2023-02-13T12:40:05;18.20;;;9.80;;
21567;SDS011;10944;42.590;12.630;2023-02-13T12:54:33;17.10;;;9.07;;
21567;SDS011;10944;42.590;12.630;2023-02-13T12:56:49;13.38;;;8.13;;
21567;SDS011;10944;42.590;12.630;2023-02-13T12:59:27;13.90;;;8.98;;
21567;SDS011;10944;42.590;12.630;2023-02-13T13:07:17;15.75;;;7.75;;
21567;SDS011;10944;42.590;12.630;2023-02-13T13:21:11;17.98;;;10.93;;
21567;SDS011;10944;42.590;12.630;2023-02-13T13:26:43;14.90;;;8.50;;
21567;SDS011;10944;42.590;12.630;2023-02-13T13:29:35;20.00;;;8.93;;
21567;SDS011;10944;42.590;12.630;2023-02-13T13:32:13;13.77;;;8.07;;
21567;SDS011;10944;42.590;12.630;2023-02-13T13:34:43;15.98;;;7.75;;
21567;SDS011;10944;42.590;12.630;2023-02-13T13:37:13;13.20;;;7.97;;
21567;SDS011;10944;42.590;12.630;2023-02-13T13:45:13;11.65;;;7.18;;
21567;SDS011;10944;42.590;12.630;2023-02-13T13:50:43;11.27;;;7.30;;
21567;SDS011;10944;42.590;12.630;2023-02-13T13:53:11;15.30;;;7.63;;
21567;SDS011;10944;42.590;12.630;2023-02-13T14:01:26;11.60;;;6.45;;
21567;SDS011;10944;42.590;12.630;2023-02-13T14:04:02;13.48;;;6.97;;
21567;SDS011;10944;42.590;12.630;2023-02-13T14:11:51;12.13;;;7.10;;
21567;SDS011;10944;42.590;12.630;2023-02-13T14:16:52;12.02;;;7.03;;
21567;SDS011;10944;42.590;12.630;2023-02-13T14:19:23;12.20;;;7.15;;
21567;SDS011;10944;42.590;12.630;2023-02-13T14:24:49;11.60;;;6.60;;
21567;SDS011;10944;42.590;12.630;2023-02-13T14:27:31;12.63;;;7.13;;
21567;SDS011;10944;42.590;12.630;2023-02-13T14:30:01;11.50;;;6.63;;
21567;SDS011;10944;42.590;12.630;2023-02-13T14:32:32;11.40;;;6.63;;
21567;SDS011;10944;42.590;12.630;2023-02-13T14:35:02;14.48;;;7.72;;
21567;SDS011;10944;42.590;12.630;2023-02-13T14:37:56;15.07;;;7.28;;
21567;SDS011;10944;42.590;12.630;2023-02-13T14:46:20;13.00;;;6.60;;
21567;SDS011;10944;42.590;12.630;2023-02-13T14:51:50;12.35;;;7.63;;
21567;SDS011;10944;42.590;12.630;2023-02-13T14:54:26;13.30;;;6.88;;
21567;SDS011;10944;42.590;12.630;2023-02-13T15:02:58;10.63;;;5.35;;
21567;SDS011;10944;42.590;12.630;2023-02-13T15:05:33;10.45;;;5.05;;
21567;SDS011;10944;42.590;12.630;2023-02-13T15:08:10;10.43;;;4.35;;
21567;SDS011;10944;42.590;12.630;2023-02-13T15:10:42;6.97;;;4.00;;
21567;SDS011;10944;42.590;12.630;2023-02-13T15:13:13;6.53;;;4.00;;
21567;SDS011;10944;42.590;12.630;2023-02-13T15:18:30;9.15;;;4.93;;
21567;SDS011;10944;42.590;12.630;2023-02-13T15:21:01;8.95;;;4.70;;
21567;SDS011;10944;42.590;12.630;2023-02-13T15:23:30;7.78;;;4.07;;
21567;SDS011;10944;42.590;12.630;2023-02-13T15:28:23;7.38;;;4.15;;
21567;SDS011;10944;42.590;12.630;2023-02-13T15:30:54;7.88;;;4.00;;
21567;SDS011;10944;42.590;12.630;2023-02-13T15:33:48;9.05;;;5.28;;
21567;SDS011;10944;42.590;12.630;2023-02-13T15:38:45;8.63;;;5.53;;
21567;SDS011;10944;42.590;12.630;2023-02-13T15:41:17;10.32;;;5.20;;
21567;SDS011;10944;42.590;12.630;2023-02-13T15:43:48;8.98;;;5.00;;
21567;SDS011;10944;42.590;12.630;2023-02-13T15:48:54;9.00;;;5.03;;
21567;SDS011;10944;42.590;12.630;2023-02-13T15:51:25;10.50;;;5.57;;
21567;SDS011;10944;42.590;12.630;2023-02-13T15:53:56;9.00;;;4.90;;
21567;SDS011;10944;42.590;12.630;2023-02-13T15:56:28;8.20;;;4.90;;
21567;SDS011;10944;42.590;12.630;2023-02-13T15:58:54;11.07;;;4.97;;
21567;SDS011;10944;42.590;12.630;2023-02-13T16:01:21;9.15;;;4.97;;
21567;SDS011;10944;42.590;12.630;2023-02-13T16:03:49;8.10;;;4.50;;
21567;SDS011;10944;42.590;12.630;2023-02-13T16:06:20;9.57;;;5.10;;
21567;SDS011;10944;42.590;12.630;2023-02-13T16:08:52;9.80;;;4.70;;
21567;SDS011;10944;42.590;12.630;2023-02-13T16:11:21;9.38;;;4.72;;
21567;SDS011;10944;42.590;12.630;2023-02-13T16:19:31;9.00;;;4.82;;
21567;SDS011;10944;42.590;12.630;2023-02-13T16:22:47;9.93;;;4.82;;
21567;SDS011;10944;42.590;12.630;2023-02-13T16:25:01;8.68;;;4.30;;
21567;SDS011;10944;42.590;12.630;2023-02-13T16:27:39;6.93;;;3.85;;
21567;SDS011;10944;42.590;12.630;2023-02-13T16:30:42;8.63;;;4.68;;
21567;SDS011;10944;42.590;12.630;2023-02-13T16:35:48;7.00;;;4.18;;
21567;SDS011;10944;42.590;12.630;2023-02-13T16:40:58;7.78;;;4.70;;
21567;SDS011;10944;42.590;12.630;2023-02-13T16:43:33;8.57;;;4.70;;
21567;SDS011;10944;42.590;12.630;2023-02-13T16:48:42;8.95;;;4.43;;
21567;SDS011;10944;42.590;12.630;2023-02-13T16:51:10;7.90;;;4.72;;
21567;SDS011;10944;42.590;12.630;2023-02-13T16:53:36;10.85;;;5.82;;
21567;SDS011;10944;42.590;12.630;2023-02-13T16:56:07;8.90;;;4.93;;
21567;SDS011;10944;42.590;12.630;2023-02-13T16:58:34;9.60;;;4.47;;
21567;SDS011;10944;42.590;12.630;2023-02-13T17:01:01;9.63;;;4.32;;
21567;SDS011;10944;42.590;12.630;2023-02-13T17:03:30;7.70;;;4.53;;
21567;SDS011;10944;42.590;12.630;2023-02-13T17:06:00;10.30;;;4.30;;
21567;SDS011;10944;42.590;12.630;2023-02-13T17:08:27;8.35;;;4.40;;
21567;SDS011;10944;42.590;12.630;2023-02-13T17:11:02;7.18;;;4.30;;
21567;SDS011;10944;42.590;12.630;2023-02-13T17:13:32;7.70;;;4.38;;
21567;SDS011;10944;42.590;12.630;2023-02-13T17:15:58;7.68;;;4.32;;
21567;SDS011;10944;42.590;12.630;2023-02-13T17:18:25;7.88;;;4.47;;
21567;SDS011;10944;42.590;12.630;2023-02-13T17:20:51;9.15;;;5.22;;
21567;SDS011;10944;42.590;12.630;2023-02-13T17:23:22;10.50;;;5.75;;
21567;SDS011;10944;42.590;12.630;2023-02-13T17:25:49;14.88;;;6.22;;
21567;SDS011;10944;42.590;12.630;2023-02-13T17:28:17;17.55;;;6.78;;
21567;SDS011;10944;42.590;12.630;2023-02-13T17:30:45;11.73;;;5.82;;
21567;SDS011;10944;42.590;12.630;2023-02-13T17:33:15;10.55;;;5.30;;
21567;SDS011;10944;42.590;12.630;2023-02-13T17:35:45;9.48;;;5.72;;
21567;SDS011;10944;42.590;12.630;2023-02-13T17:38:11;14.63;;;7.10;;
21567;SDS011;10944;42.590;12.630;2023-02-13T17:40:38;12.30;;;7.35;;
21567;SDS011;10944;42.590;12.630;2023-02-13T17:43:05;13.27;;;8.13;;
21567;SDS011;10944;42.590;12.630;2023-02-13T17:45:34;14.05;;;7.65;;
21567;SDS011;10944;42.590;12.630;2023-02-13T17:48:00;12.48;;;7.03;;
21567;SDS011;10944;42.590;12.630;2023-02-13T17:50:26;11.80;;;6.47;;
21567;SDS011;10944;42.590;12.630;2023-02-13T17:52:54;11.82;;;6.38;;
21567;SDS011;10944;42.590;12.630;2023-02-13T17:55:21;16.75;;;7.30;;
21567;SDS011;10944;42.590;12.630;2023-02-13T17:57:51;16.00;;;7.23;;
21567;SDS011;10944;42.590;12.630;2023-02-13T18:00:21;14.53;;;7.27;;
21567;SDS011;10944;42.590;12.630;2023-02-13T18:02:48;13.57;;;7.53;;
21567;SDS011;10944;42.590;12.630;2023-02-13T18:05:15;15.07;;;7.80;;
21567;SDS011;10944;42.590;12.630;2023-02-13T18:07:42;14.50;;;8.40;;
21567;SDS011;10944;42.590;12.630;2023-02-13T18:10:22;14.23;;;8.83;;
21567;SDS011;10944;42.590;12.630;2023-02-13T18:12:50;15.70;;;9.13;;